Time;durP1;ratioP1;P1;durP2;ratioP2;P2;SDS_P1;SDS_P2;PMS_P1;PMS_P2;Temp;Humidity;BMP_temperature;BMP_pressure;BME280_temperature;BME280_humidity;BME280_pressure;Samples;Min_cycle;Max_cycle;Signal;HPM_P1;HPM_P2
2022/03/12 00:01:07;;;;;;;0.63;0.63;;;6.60;99.90;;;;;;5024514;28;20206;-85
2022/03/12 00:03:32;;;;;;;0.20;0.20;;;6.60;99.90;;;;;;5026907;28;21151;-85
2022/03/12 00:06:00;;;;;;;1.10;1.00;;;6.60;99.90;;;;;;5022946;28;20194;-85
2022/03/12 00:08:34;;;;;;;3.27;0.83;;;6.60;99.90;;;;;;5024025;28;20217;-85
2022/03/12 00:11:00;;;;;;;0.50;0.50;;;6.60;99.90;;;;;;5021941;28;20224;-85
2022/03/12 00:13:26;;;;;;;0.60;0.60;;;6.60;99.90;;;;;;5025570;28;20225;-85
2022/03/12 00:15:52;;;;;;;1.43;1.33;;;6.50;99.90;;;;;;5022561;28;20285;-85
2022/03/12 00:18:19;;;;;;;0.97;0.83;;;6.50;99.90;;;;;;5023997;28;20233;-85
2022/03/12 00:20:48;;;;;;;2.17;0.30;;;6.50;99.90;;;;;;5022193;28;20262;-84
2022/03/12 00:23:17;;;;;;;1.07;0.70;;;6.50;99.90;;;;;;5025995;28;20191;-85
2022/03/12 00:25:43;;;;;;;6.40;0.43;;;6.50;99.90;;;;;;5025572;28;20609;-85
2022/03/12 00:28:08;;;;;;;0.33;0.33;;;6.40;99.90;;;;;;5025259;28;20750;-85
2022/03/12 00:30:35;;;;;;;1.33;1.27;;;6.40;99.90;;;;;;5018401;28;20202;-84
2022/03/12 00:33:02;;;;;;;0.20;0.20;;;6.40;99.90;;;;;;5020793;28;20195;-85
2022/03/12 00:35:27;;;;;;;1.53;0.60;;;6.40;99.90;;;;;;5025140;28;20178;-85
2022/03/12 00:37:53;;;;;;;0.70;0.60;;;6.40;99.90;;;;;;5025144;28;20200;-84
2022/03/12 00:40:20;;;;;;;1.83;0.80;;;6.40;99.90;;;;;;5020755;28;20309;-84
2022/03/12 00:42:46;;;;;;;0.80;0.80;;;6.30;99.90;;;;;;5040712;28;20187;-85
2022/03/12 00:45:12;;;;;;;0.40;0.40;;;6.40;99.90;;;;;;5024795;28;20210;-85
2022/03/12 00:47:37;;;;;;;0.57;0.57;;;6.40;99.90;;;;;;5024678;28;20198;-84
2022/03/12 00:50:04;;;;;;;2.77;0.50;;;6.30;99.90;;;;;;5024737;28;20186;-85
2022/03/12 00:52:30;;;;;;;0.87;0.87;;;6.40;99.90;;;;;;5021267;28;20221;-85
2022/03/12 00:54:55;;;;;;;0.47;0.47;;;6.40;99.90;;;;;;5022885;28;20660;-85
2022/03/12 00:57:21;;;;;;;0.23;0.23;;;6.30;99.90;;;;;;5022385;28;20193;-84
2022/03/12 00:59:46;;;;;;;0.50;0.50;;;6.30;99.90;;;;;;5022754;28;20273;-85
2022/03/12 01:02:15;;;;;;;0.50;0.50;;;6.20;99.90;;;;;;5023457;28;20247;-85
2022/03/12 01:04:41;;;;;;;0.20;0.20;;;6.30;99.90;;;;;;5017219;28;20320;-85
2022/03/12 01:07:10;;;;;;;0.87;0.43;;;6.30;99.90;;;;;;5018981;28;20205;-85
2022/03/12 01:09:36;;;;;;;0.23;0.23;;;6.30;99.90;;;;;;5022730;28;20774;-85
2022/03/12 01:12:02;;;;;;;0.63;0.63;;;6.30;99.90;;;;;;5023047;28;20233;-84
2022/03/12 01:14:29;;;;;;;0.40;0.40;;;6.30;99.90;;;;;;5019546;28;20260;-85
2022/03/12 01:16:58;;;;;;;3.60;0.27;;;6.30;99.90;;;;;;5020682;28;20200;-85
2022/03/12 01:19:24;;;;;;;0.30;0.30;;;6.20;99.90;;;;;;5020423;28;20225;-84
2022/03/12 01:21:49;;;;;;;1.70;1.17;;;6.20;99.90;;;;;;5022078;28;20208;-85
2022/03/12 01:24:15;;;;;;;0.93;0.63;;;6.20;99.90;;;;;;5020058;28;20204;-85
2022/03/12 01:26:41;;;;;;;0.30;0.30;;;6.10;99.90;;;;;;5018833;28;20209;-84
2022/03/12 01:29:07;;;;;;;0.77;0.57;;;6.10;99.90;;;;;;5028262;28;20182;-85
2022/03/12 01:31:36;;;;;;;1.30;0.77;;;6.10;99.90;;;;;;5027276;28;20198;-84
2022/03/12 01:34:03;;;;;;;0.30;0.30;;;6.10;99.90;;;;;;5027894;28;20208;-85
2022/03/12 01:36:29;;;;;;;0.20;0.20;;;6.00;99.90;;;;;;5025686;28;20191;-85
2022/03/12 01:38:57;;;;;;;0.47;0.30;;;6.00;99.90;;;;;;5020241;28;20283;-84
2022/03/12 01:41:28;;;;;;;0.33;0.33;;;6.00;99.90;;;;;;5028343;28;20213;-85
2022/03/12 01:43:57;;;;;;;0.60;0.60;;;6.00;99.90;;;;;;5026555;28;20174;-85
2022/03/12 01:46:32;;;;;;;3.43;0.40;;;6.00;99.90;;;;;;5028379;28;20699;-84
2022/03/12 01:48:59;;;;;;;1.07;1.07;;;5.90;99.90;;;;;;5027342;28;20174;-85
2022/03/12 01:51:26;;;;;;;2.33;1.50;;;5.90;99.90;;;;;;5025685;28;20210;-85
2022/03/12 01:53:51;;;;;;;0.50;0.50;;;5.90;99.90;;;;;;5022435;28;20185;-85
2022/03/12 01:56:17;;;;;;;0.30;0.30;;;5.90;99.90;;;;;;5025408;28;20186;-85
2022/03/12 01:58:47;;;;;;;0.40;0.40;;;6.00;99.90;;;;;;5028084;28;20241;-84
2022/03/12 02:01:14;;;;;;;0.30;0.30;;;5.90;99.90;;;;;;5020944;28;20216;-85
2022/03/12 02:03:42;;;;;;;0.23;0.23;;;5.90;99.90;;;;;;5025341;28;20660;-85
2022/03/12 02:06:07;;;;;;;0.40;0.40;;;6.00;99.90;;;;;;5025786;28;20249;-84
2022/03/12 02:08:33;;;;;;;0.83;0.37;;;5.80;99.90;;;;;;5028647;28;20179;-85
2022/03/12 02:10:59;;;;;;;0.30;0.30;;;5.90;99.90;;;;;;5024889;28;20221;-85
2022/03/12 02:13:26;;;;;;;0.30;0.20;;;5.90;99.90;;;;;;5023797;28;20186;-85
2022/03/12 02:16:06;;;;;;;1.60;0.73;;;5.90;99.90;;;;;;5025524;28;20217;-86
2022/03/12 02:18:31;;;;;;;0.67;0.30;;;5.80;99.90;;;;;;5025976;28;20191;-85
2022/03/12 02:20:58;;;;;;;3.07;1.03;;;5.70;99.90;;;;;;5028741;28;20217;-85
2022/03/12 02:23:23;;;;;;;0.40;0.40;;;5.70;99.90;;;;;;5027967;28;20196;-85
2022/03/12 02:25:49;;;;;;;0.10;0.10;;;5.70;99.90;;;;;;5026441;28;20209;-85
2022/03/12 02:28:17;;;;;;;4.20;0.50;;;5.70;99.90;;;;;;5027534;28;20236;-84
2022/03/12 02:30:51;;;;;;;0.37;0.37;;;5.70;99.90;;;;;;5021210;28;20297;-84
2022/03/12 02:33:27;;;;;;;0.73;0.70;;;5.70;99.90;;;;;;5026198;28;20537;-85
2022/03/12 02:35:53;;;;;;;0.37;0.30;;;5.70;99.90;;;;;;5025417;28;20178;-85
2022/03/12 02:38:21;;;;;;;1.00;0.47;;;5.70;99.90;;;;;;5022282;28;20954;-85
2022/03/12 02:40:48;;;;;;;0.33;0.33;;;5.60;99.90;;;;;;5024774;28;20237;-84
2022/03/12 02:43:13;;;;;;;0.50;0.50;;;5.70;99.90;;;;;;5026335;28;20197;-84
2022/03/12 02:45:40;;;;;;;0.17;0.17;;;5.70;99.90;;;;;;5027243;28;20652;-85
2022/03/12 02:48:08;;;;;;;0.73;0.73;;;5.70;99.90;;;;;;5027796;28;20200;-85
2022/03/12 02:50:36;;;;;;;0.20;0.20;;;5.70;99.90;;;;;;5026130;28;20213;-84
2022/03/12 02:53:02;;;;;;;0.20;0.10;;;5.70;99.90;;;;;;5025920;28;20240;-84
2022/03/12 02:55:27;;;;;;;1.70;0.60;;;5.70;99.90;;;;;;5021420;28;20599;-85
2022/03/12 02:57:53;;;;;;;0.43;0.43;;;5.80;99.90;;;;;;5021711;28;20195;-84
2022/03/12 03:00:20;;;;;;;0.30;0.30;;;5.80;99.90;;;;;;5020606;28;20190;-85
2022/03/12 03:02:55;;;;;;;1.43;1.33;;;5.70;99.90;;;;;;5026606;28;20194;-85
2022/03/12 03:08:04;;;;;;;0.47;0.47;;;5.60;99.90;;;;;;5026617;28;20203;-85
2022/03/12 03:10:41;;;;;;;0.30;0.30;;;5.50;99.90;;;;;;5021720;28;20207;-85
2022/03/12 03:13:35;;;;;;;0.53;0.50;;;5.40;99.90;;;;;;5026373;28;20188;-85
2022/03/12 03:16:22;;;;;;;0.17;0.17;;;5.40;99.90;;;;;;5020818;28;20192;-85
2022/03/12 03:18:53;;;;;;;0.63;0.63;;;5.50;99.90;;;;;;5027057;28;20659;-85
2022/03/12 03:21:22;;;;;;;0.23;0.23;;;5.40;99.90;;;;;;5021360;28;20227;-83
2022/03/12 03:23:48;;;;;;;0.37;0.33;;;5.40;99.90;;;;;;5023089;28;20747;-84
2022/03/12 03:26:19;;;;;;;0.53;0.53;;;5.40;99.90;;;;;;5022380;28;20715;-85
2022/03/12 03:28:45;;;;;;;0.10;0.10;;;5.30;99.90;;;;;;5026375;28;20545;-85
2022/03/12 03:31:11;;;;;;;7.80;0.57;;;5.30;99.90;;;;;;5026030;28;20201;-85
2022/03/12 03:33:36;;;;;;;0.47;0.20;;;5.20;99.90;;;;;;5021774;28;20199;-85
2022/03/12 03:36:02;;;;;;;0.50;0.50;;;5.20;99.90;;;;;;5021657;28;20210;-85
2022/03/12 03:38:28;;;;;;;0.30;0.30;;;5.20;99.90;;;;;;5021630;28;20220;-84
2022/03/12 03:40:53;;;;;;;0.50;0.50;;;5.00;99.90;;;;;;5022199;28;20198;-85
2022/03/12 03:43:23;;;;;;;0.10;0.10;;;5.00;99.90;;;;;;5022712;28;20216;-84
2022/03/12 03:45:51;;;;;;;0.50;0.50;;;5.00;99.90;;;;;;5016698;28;20178;-85
2022/03/12 03:48:24;;;;;;;0.10;0.10;;;4.90;99.90;;;;;;5025799;28;20232;-84
2022/03/12 03:50:51;;;;;;;0.37;0.10;;;4.80;99.90;;;;;;5024395;28;20286;-85
2022/03/12 03:53:21;;;;;;;0.20;0.20;;;4.80;99.90;;;;;;5025537;28;20187;-84
2022/03/12 03:55:47;;;;;;;0.30;0.30;;;4.80;99.90;;;;;;5022083;28;20202;-86
2022/03/12 03:58:14;;;;;;;0.30;0.30;;;4.70;99.90;;;;;;5025576;28;20205;-84
2022/03/12 04:00:50;;;;;;;0.33;0.33;;;4.70;99.90;;;;;;5025004;28;20316;-85
2022/03/12 04:03:16;;;;;;;0.17;0.17;;;4.70;99.90;;;;;;5024832;28;20182;-85
2022/03/12 04:05:41;;;;;;;0.50;0.50;;;4.70;99.90;;;;;;5023810;28;20220;-85
2022/03/12 04:08:08;;;;;;;0.67;0.67;;;4.60;99.90;;;;;;5022349;28;20204;-85
2022/03/12 04:10:35;;;;;;;0.63;0.37;;;4.60;99.90;;;;;;5021761;28;20230;-85
2022/03/12 04:13:01;;;;;;;0.23;0.13;;;4.60;99.90;;;;;;5025017;28;20248;-85
2022/03/12 04:15:28;;;;;;;0.83;0.60;;;4.60;99.90;;;;;;5024725;28;20244;-85
2022/03/12 04:17:54;;;;;;;0.33;0.33;;;4.60;99.90;;;;;;5022868;28;20247;-85
2022/03/12 04:20:21;;;;;;;0.10;0.10;;;4.50;99.90;;;;;;5024077;28;20608;-84
2022/03/12 04:22:49;;;;;;;0.10;0.10;;;4.50;99.90;;;;;;5021734;28;20200;-85
2022/03/12 04:25:15;;;;;;;0.10;0.10;;;4.50;99.90;;;;;;5021817;28;20256;-85
2022/03/12 04:27:44;;;;;;;0.23;0.23;;;4.50;99.90;;;;;;5021804;28;20201;-85
2022/03/12 04:30:15;;;;;;;0.17;0.17;;;4.50;99.90;;;;;;5023566;28;20181;-84
2022/03/12 04:32:42;;;;;;;0.27;0.27;;;4.50;99.90;;;;;;5024087;28;20269;-85
2022/03/12 04:35:09;;;;;;;0.37;0.37;;;4.50;99.90;;;;;;5021692;28;20756;-84
2022/03/12 04:37:36;;;;;;;0.77;0.40;;;4.50;99.90;;;;;;5019895;28;20233;-85
2022/03/12 04:40:10;;;;;;;1.23;0.40;;;4.50;99.90;;;;;;5024026;28;20225;-84
2022/03/12 04:42:43;;;;;;;0.20;0.20;;;4.40;99.90;;;;;;5025040;28;20181;-84
2022/03/12 04:45:11;;;;;;;0.20;0.20;;;4.40;99.90;;;;;;5021562;28;20183;-84
2022/03/12 04:47:36;;;;;;;0.10;0.10;;;4.40;99.90;;;;;;5015242;28;20216;-84
2022/03/12 04:50:05;;;;;;;0.10;0.10;;;4.40;99.90;;;;;;5022666;28;20187;-86
2022/03/12 04:52:31;;;;;;;0.60;0.20;;;4.40;99.90;;;;;;5017311;28;20214;-85
2022/03/12 04:54:58;;;;;;;0.10;0.10;;;4.30;99.90;;;;;;5021822;28;20179;-85
2022/03/12 04:57:24;;;;;;;0.10;0.10;;;4.20;99.90;;;;;;5022509;28;20190;-84
2022/03/12 04:59:50;;;;;;;0.20;0.20;;;4.20;99.90;;;;;;5023039;28;20205;-85
2022/03/12 05:02:15;;;;;;;0.30;0.30;;;4.20;99.90;;;;;;5017307;28;20206;-85
2022/03/12 05:04:41;;;;;;;0.83;0.60;;;4.20;99.90;;;;;;5024364;28;20244;-84
2022/03/12 05:07:08;;;;;;;0.17;0.17;;;4.20;99.90;;;;;;5019630;28;20202;-85
2022/03/12 05:09:34;;;;;;;0.80;0.80;;;4.20;99.90;;;;;;5022554;28;20253;-85
2022/03/12 05:12:04;;;;;;;0.50;0.47;;;4.20;99.90;;;;;;5022837;28;20208;-85
2022/03/12 05:14:29;;;;;;;0.53;0.50;;;4.20;99.90;;;;;;5017074;28;20194;-84
2022/03/12 05:16:55;;;;;;;0.30;0.30;;;4.20;99.90;;;;;;5021289;28;20245;-84
2022/03/12 05:19:21;;;;;;;0.10;0.10;;;4.20;99.90;;;;;;5021934;28;20540;-85
2022/03/12 05:21:46;;;;;;;0.23;0.23;;;4.20;99.90;;;;;;5019990;28;20280;-84
2022/03/12 05:24:14;;;;;;;0.30;0.30;;;4.10;99.90;;;;;;5023977;28;20190;-85
2022/03/12 05:26:40;;;;;;;0.20;0.20;;;4.20;99.90;;;;;;5020912;28;21091;-85
2022/03/12 05:29:06;;;;;;;0.23;0.23;;;4.20;99.90;;;;;;5019932;28;20183;-85
2022/03/12 05:31:32;;;;;;;0.67;0.40;;;4.20;99.90;;;;;;5019296;28;20207;-85
2022/03/12 05:33:57;;;;;;;0.60;0.60;;;4.20;99.90;;;;;;5020653;28;20208;-84
2022/03/12 05:36:23;;;;;;;0.33;0.27;;;4.20;99.90;;;;;;5021544;28;20687;-85
2022/03/12 05:38:48;;;;;;;3.30;0.30;;;4.20;99.90;;;;;;5018802;28;20213;-85
2022/03/12 05:41:14;;;;;;;0.50;0.50;;;4.20;99.90;;;;;;5018975;28;20252;-85
2022/03/12 05:43:44;;;;;;;0.13;0.13;;;4.20;99.90;;;;;;5020543;28;20193;-85
2022/03/12 05:46:11;;;;;;;0.23;0.23;;;4.20;99.90;;;;;;5018859;28;20205;-86
2022/03/12 05:48:37;;;;;;;0.77;0.53;;;4.20;99.90;;;;;;5018621;28;20671;-85
2022/03/12 05:51:04;;;;;;;0.27;0.27;;;4.20;99.90;;;;;;5018157;28;20210;-84
2022/03/12 05:53:30;;;;;;;0.10;0.10;;;4.20;99.90;;;;;;5017449;28;20193;-84
2022/03/12 05:55:55;;;;;;;0.20;0.20;;;4.20;99.90;;;;;;5018487;28;20181;-84
2022/03/12 05:58:26;;;;;;;0.30;0.30;;;4.20;99.90;;;;;;5019379;28;20583;-85
2022/03/12 06:00:54;;;;;;;0.87;0.30;;;4.20;99.90;;;;;;5020551;28;20297;-85
2022/03/12 06:03:24;;;;;;;0.70;0.63;;;4.20;99.90;;;;;;5023875;28;20301;-84
2022/03/12 06:05:56;;;;;;;0.57;0.43;;;4.10;99.90;;;;;;5022475;28;20196;-85
2022/03/12 06:08:22;;;;;;;0.80;0.63;;;4.10;99.90;;;;;;5019531;28;20203;-84
2022/03/12 06:10:51;;;;;;;0.53;0.30;;;4.10;99.90;;;;;;5022686;28;20265;-84
2022/03/12 06:13:17;;;;;;;0.33;0.33;;;4.20;99.90;;;;;;5017133;28;20194;-84
2022/03/12 06:15:48;;;;;;;0.23;0.23;;;4.20;99.90;;;;;;5023203;28;20185;-84
2022/03/12 06:18:14;;;;;;;0.10;0.10;;;4.30;99.90;;;;;;5023983;28;20663;-84
2022/03/12 06:20:40;;;;;;;0.10;0.10;;;4.30;99.90;;;;;;5024178;28;20209;-83
2022/03/12 06:23:06;;;;;;;0.73;0.53;;;4.40;99.90;;;;;;5025921;28;20197;-82
2022/03/12 06:25:32;;;;;;;0.50;0.50;;;4.40;99.90;;;;;;5025739;28;21460;-82
2022/03/12 06:27:58;;;;;;;0.17;0.17;;;4.50;99.90;;;;;;5022317;28;20216;-81
2022/03/12 06:30:26;;;;;;;0.50;0.50;;;4.70;99.90;;;;;;5026002;28;20203;-81
2022/03/12 06:32:55;;;;;;;0.10;0.10;;;4.70;99.90;;;;;;5023822;28;20186;-82
2022/03/12 06:35:22;;;;;;;1.37;0.53;;;4.80;99.90;;;;;;5025857;28;20178;-82
2022/03/12 06:37:48;;;;;;;0.50;0.43;;;4.80;99.90;;;;;;5023507;28;20285;-82
2022/03/12 06:40:15;;;;;;;0.30;0.30;;;4.90;99.90;;;;;;5029163;28;20194;-82
2022/03/12 06:42:46;;;;;;;0.20;0.20;;;4.90;99.90;;;;;;5029031;28;20205;-82
2022/03/12 06:45:15;;;;;;;0.40;0.40;;;5.00;99.90;;;;;;5027147;28;20191;-82
2022/03/12 06:47:43;;;;;;;0.40;0.40;;;5.20;99.90;;;;;;5028122;28;20188;-82
2022/03/12 06:50:11;;;;;;;0.10;0.10;;;5.30;99.90;;;;;;5026240;28;20275;-82
2022/03/12 06:52:37;;;;;;;0.53;0.53;;;5.30;99.90;;;;;;5029396;28;20650;-82
2022/03/12 06:55:03;;;;;;;0.33;0.30;;;5.40;99.90;;;;;;5026188;28;20210;-82
2022/03/12 06:57:29;;;;;;;0.20;0.20;;;5.60;99.90;;;;;;5029644;28;20194;-82
2022/03/12 06:59:54;;;;;;;1.03;0.73;;;5.70;99.90;;;;;;5023421;28;20269;-82
2022/03/12 07:02:20;;;;;;;0.20;0.20;;;6.00;99.90;;;;;;5028477;28;20203;-84
2022/03/12 07:04:45;;;;;;;0.90;0.90;;;6.00;99.90;;;;;;5025526;28;20598;-84
2022/03/12 07:07:11;;;;;;;0.10;0.10;;;5.90;99.90;;;;;;5022571;28;20771;-84
2022/03/12 07:09:37;;;;;;;0.80;0.60;;;6.20;99.90;;;;;;5025781;28;20235;-84
2022/03/12 07:12:03;;;;;;;0.20;0.20;;;5.80;99.90;;;;;;5025666;28;20206;-82
2022/03/12 07:14:30;;;;;;;0.37;0.37;;;5.40;99.90;;;;;;5026094;28;20201;-82
2022/03/12 07:16:55;;;;;;;0.40;0.40;;;5.60;99.90;;;;;;5026364;28;20190;-82
2022/03/12 07:19:22;;;;;;;0.23;0.23;;;5.60;99.90;;;;;;5026290;28;20565;-82
2022/03/12 07:21:49;;;;;;;0.20;0.20;;;5.80;99.90;;;;;;5026645;28;20237;-82
2022/03/12 07:24:16;;;;;;;0.50;0.50;;;5.70;99.90;;;;;;5029383;28;20197;-83
2022/03/12 07:26:42;;;;;;;1.93;1.13;;;5.60;99.90;;;;;;5025461;28;20202;-82
2022/03/12 07:29:07;;;;;;;1.57;0.80;;;5.50;99.90;;;;;;5026867;28;20196;-82
2022/03/12 07:31:34;;;;;;;0.20;0.20;;;5.70;99.90;;;;;;5022723;28;20222;-82
2022/03/12 07:33:59;;;;;;;0.30;0.30;;;5.80;99.90;;;;;;5029123;28;20212;-82
2022/03/12 07:36:25;;;;;;;0.70;0.70;;;5.80;99.90;;;;;;5025849;28;20186;-83
2022/03/12 07:38:50;;;;;;;0.60;0.60;;;5.70;99.90;;;;;;5024930;28;20182;-83
2022/03/12 07:41:16;;;;;;;0.23;0.23;;;6.00;99.90;;;;;;5026931;28;20214;-83
2022/03/12 07:43:42;;;;;;;1.70;1.43;;;6.00;99.90;;;;;;5026389;28;20304;-82
2022/03/12 07:46:08;;;;;;;0.27;0.27;;;5.90;99.90;;;;;;5020327;28;20238;-82
2022/03/12 07:48:33;;;;;;;1.03;0.60;;;5.90;99.90;;;;;;5019860;28;20274;-82
2022/03/12 07:51:01;;;;;;;0.20;0.20;;;6.10;99.90;;;;;;5024658;28;20209;-83
2022/03/12 07:53:27;;;;;;;1.10;1.10;;;6.50;99.90;;;;;;5024738;28;20194;-82
2022/03/12 07:55:52;;;;;;;0.87;0.53;;;6.60;99.90;;;;;;5022543;28;20186;-82
2022/03/12 07:58:18;;;;;;;0.20;0.20;;;6.40;99.90;;;;;;5025579;28;20197;-82
2022/03/12 08:00:44;;;;;;;0.77;0.50;;;6.80;99.90;;;;;;5021564;28;20244;-82
2022/03/12 08:03:10;;;;;;;0.40;0.40;;;6.80;99.90;;;;;;5024369;28;20190;-82
2022/03/12 08:05:36;;;;;;;0.53;0.30;;;6.90;99.90;;;;;;5021714;28;20229;-82
2022/03/12 08:08:03;;;;;;;0.67;0.40;;;6.80;99.90;;;;;;5024556;28;20320;-81
2022/03/12 08:10:28;;;;;;;0.40;0.30;;;7.10;99.90;;;;;;5023513;28;20217;-80
2022/03/12 08:12:55;;;;;;;1.10;0.83;;;6.90;99.90;;;;;;5022117;28;20191;-81
2022/03/12 08:15:20;;;;;;;0.50;0.50;;;6.70;99.90;;;;;;5017531;28;20202;-85
2022/03/12 08:17:47;;;;;;;0.73;0.73;;;7.20;99.90;;;;;;5017253;28;20192;-85
2022/03/12 08:20:13;;;;;;;0.83;0.53;;;7.40;99.90;;;;;;5023303;28;20277;-84
2022/03/12 08:22:41;;;;;;;0.50;0.50;;;7.40;99.90;;;;;;5022052;28;20653;-86
2022/03/12 08:25:09;;;;;;;0.73;0.40;;;7.60;99.90;;;;;;5021857;28;20184;-84
2022/03/12 08:27:36;;;;;;;3.13;0.53;;;7.70;99.90;;;;;;5025164;28;20218;-85
2022/03/12 08:30:07;;;;;;;0.57;0.57;;;7.40;99.90;;;;;;5022128;28;20204;-85
2022/03/12 08:32:35;;;;;;;0.70;0.70;;;7.50;99.90;;;;;;5023203;28;20271;-84
2022/03/12 08:35:01;;;;;;;0.30;0.30;;;7.50;99.90;;;;;;5025530;28;20714;-83
2022/03/12 08:37:27;;;;;;;0.53;0.53;;;7.50;99.90;;;;;;5020820;28;20195;-82
2022/03/12 08:39:52;;;;;;;0.60;0.60;;;7.20;99.90;;;;;;5020623;28;20192;-83
2022/03/12 08:42:18;;;;;;;0.23;0.23;;;7.40;99.90;;;;;;5026245;28;20428;-82
2022/03/12 08:44:44;;;;;;;0.10;0.10;;;7.50;99.90;;;;;;5021984;28;20205;-82
2022/03/12 08:47:09;;;;;;;0.30;0.30;;;7.50;99.90;;;;;;5022650;28;20221;-82
2022/03/12 08:49:35;;;;;;;0.57;0.50;;;7.10;99.90;;;;;;5018903;28;20185;-82
2022/03/12 08:52:01;;;;;;;0.90;0.80;;;7.30;99.90;;;;;;5025627;28;20288;-82
2022/03/12 08:54:27;;;;;;;0.67;0.67;;;7.30;99.90;;;;;;5024707;28;20270;-82
2022/03/12 08:56:52;;;;;;;2.50;2.40;;;7.60;99.90;;;;;;5024802;28;20189;-82
2022/03/12 08:59:19;;;;;;;0.80;0.53;;;7.50;99.90;;;;;;5027672;28;20239;-82
2022/03/12 09:01:45;;;;;;;0.20;0.20;;;7.80;99.90;;;;;;5026110;28;20208;-82
2022/03/12 09:04:12;;;;;;;0.20;0.20;;;8.00;99.90;;;;;;5025236;28;20189;-82
2022/03/12 09:06:38;;;;;;;0.50;0.50;;;8.50;99.90;;;;;;5025615;28;20210;-82
2022/03/12 09:09:05;;;;;;;0.77;0.63;;;8.50;99.90;;;;;;5030048;28;20315;-82
2022/03/12 09:11:31;;;;;;;1.37;1.27;;;8.50;99.90;;;;;;5031083;28;20237;-81
2022/03/12 09:13:57;;;;;;;1.13;0.90;;;8.10;99.90;;;;;;5028420;28;20396;-82
2022/03/12 09:16:23;;;;;;;1.27;1.20;;;7.90;99.90;;;;;;5026451;28;20566;-82
2022/03/12 09:18:48;;;;;;;0.37;0.37;;;8.00;99.90;;;;;;5030212;28;20178;-82
2022/03/12 09:21:14;;;;;;;0.60;0.60;;;8.00;99.90;;;;;;5028848;28;20205;-82
2022/03/12 09:23:40;;;;;;;0.53;0.53;;;7.70;99.90;;;;;;5029233;28;20183;-82
2022/03/12 09:26:06;;;;;;;1.43;0.80;;;7.80;99.90;;;;;;5026360;28;20192;-82
2022/03/12 09:28:31;;;;;;;3.00;0.37;;;8.20;99.90;;;;;;5025494;28;20702;-82
2022/03/12 09:30:57;;;;;;;0.53;0.53;;;8.30;99.90;;;;;;5020133;28;20732;-82
2022/03/12 09:33:23;;;;;;;0.60;0.60;;;8.50;99.90;;;;;;5022633;28;20197;-81
2022/03/12 09:35:54;;;;;;;0.50;0.37;;;8.20;99.90;;;;;;5019460;28;20194;-82
2022/03/12 09:38:19;;;;;;;1.13;0.60;;;8.00;99.90;;;;;;5031187;28;20252;-81
2022/03/12 09:40:45;;;;;;;1.20;1.10;;;8.10;99.90;;;;;;5024156;28;20212;-83
2022/03/12 09:43:12;;;;;;;2.77;0.97;;;8.30;99.90;;;;;;5022680;28;20193;-82
2022/03/12 09:45:37;;;;;;;1.23;0.80;;;8.60;99.90;;;;;;5025177;28;20197;-80
2022/03/12 09:48:04;;;;;;;0.83;0.83;;;8.50;99.90;;;;;;5027904;28;20215;-82
2022/03/12 09:50:30;;;;;;;0.77;0.77;;;8.70;99.90;;;;;;5028842;28;20212;-83
2022/03/12 09:52:56;;;;;;;1.23;1.23;;;8.80;99.90;;;;;;5027136;28;20194;-82
2022/03/12 09:55:22;;;;;;;0.90;0.90;;;9.10;99.90;;;;;;5025745;28;20194;-82
2022/03/12 09:57:49;;;;;;;1.30;0.60;;;9.40;99.90;;;;;;5023889;28;20201;-82
2022/03/12 10:00:17;;;;;;;0.27;0.27;;;9.80;99.90;;;;;;5022472;28;20197;-82
2022/03/12 10:02:43;;;;;;;0.73;0.40;;;9.60;99.90;;;;;;5021593;28;20255;-81
2022/03/12 10:05:13;;;;;;;1.03;0.73;;;10.00;99.90;;;;;;5028185;28;20221;-81
2022/03/12 10:07:41;;;;;;;1.10;0.70;;;9.70;99.90;;;;;;5023010;28;20321;-82
2022/03/12 10:10:11;;;;;;;0.97;0.77;;;10.40;99.90;;;;;;5026329;28;20239;-83
2022/03/12 10:12:37;;;;;;;0.33;0.33;;;10.10;99.90;;;;;;5025807;28;20268;-82
2022/03/12 10:15:02;;;;;;;2.93;0.80;;;10.60;99.90;;;;;;5021819;28;20253;-82
2022/03/12 10:17:31;;;;;;;0.50;0.40;;;10.90;99.90;;;;;;5024559;28;20218;-84
2022/03/12 10:19:56;;;;;;;0.63;0.63;;;11.00;99.90;;;;;;5025429;28;20185;-83
2022/03/12 10:22:23;;;;;;;1.57;1.20;;;10.80;99.90;;;;;;5023441;28;20209;-83
2022/03/12 10:24:49;;;;;;;0.93;0.67;;;10.50;99.90;;;;;;5025406;28;20663;-85
2022/03/12 10:27:14;;;;;;;0.93;0.60;;;10.00;99.90;;;;;;5040987;28;20206;-86
2022/03/12 10:29:40;;;;;;;1.13;0.53;;;10.30;99.90;;;;;;5022151;28;20186;-86
2022/03/12 10:32:26;;;;;;;0.87;0.57;;;10.60;99.90;;;;;;5025090;28;20212;-86
2022/03/12 10:34:56;;;;;;;0.50;0.50;;;10.40;99.90;;;;;;5025409;28;20186;-85
2022/03/12 10:37:24;;;;;;;2.00;1.27;;;10.80;99.90;;;;;;5021297;28;20961;-88
2022/03/12 10:40:03;;;;;;;1.67;0.40;;;10.80;99.90;;;;;;5026742;28;20200;-88
2022/03/12 10:42:30;;;;;;;0.80;0.60;;;10.50;99.90;;;;;;5024607;28;20210;-89
2022/03/12 10:45:04;;;;;;;1.07;0.83;;;11.10;99.90;;;;;;5025809;28;20213;-88
2022/03/12 10:47:30;;;;;;;0.50;0.50;;;11.70;99.90;;;;;;5027089;28;20272;-88
2022/03/12 10:49:58;;;;;;;1.03;0.50;;;11.90;99.90;;;;;;5024714;28;20182;-86
2022/03/12 10:52:31;;;;;;;0.80;0.80;;;11.80;99.90;;;;;;5022002;28;20208;-83
2022/03/12 10:54:58;;;;;;;2.00;0.97;;;11.60;99.90;;;;;;5026293;28;21559;-81
2022/03/12 10:57:24;;;;;;;1.97;0.67;;;11.20;99.90;;;;;;5024376;28;20217;-83
2022/03/12 10:59:56;;;;;;;3.10;0.70;;;11.50;99.90;;;;;;5028550;28;20183;-82
2022/03/12 11:02:22;;;;;;;0.87;0.57;;;11.70;99.90;;;;;;5027017;28;20245;-82
2022/03/12 11:04:47;;;;;;;1.00;0.87;;;11.80;99.90;;;;;;5025121;28;20226;-82
2022/03/12 11:07:28;;;;;;;0.33;0.30;;;11.40;99.90;;;;;;5023462;28;20845;-83
2022/03/12 11:09:55;;;;;;;0.40;0.40;;;11.60;99.90;;;;;;5026019;28;20265;-83
2022/03/12 11:12:35;;;;;;;1.07;0.97;;;12.20;99.90;;;;;;5026245;28;20198;-83
2022/03/12 11:15:08;;;;;;;0.53;0.53;;;12.50;99.90;;;;;;5028307;28;20178;-83
2022/03/12 11:17:44;;;;;;;2.20;0.97;;;13.00;99.90;;;;;;5026445;28;21002;-82
2022/03/12 11:20:21;;;;;;;0.90;0.90;;;12.60;99.90;;;;;;5023008;28;20221;-83
2022/03/12 11:23:03;;;;;;;1.30;1.20;;;12.30;99.90;;;;;;5028573;28;20596;-83
2022/03/12 11:25:29;;;;;;;0.83;0.73;;;12.60;99.90;;;;;;5025590;28;20193;-83
2022/03/12 11:27:59;;;;;;;2.17;0.43;;;12.20;99.90;;;;;;5025859;28;20199;-83
2022/03/12 11:30:28;;;;;;;0.60;0.60;;;12.80;99.90;;;;;;5027179;28;20215;-82
2022/03/12 11:33:07;;;;;;;1.00;1.00;;;12.70;99.90;;;;;;5026630;28;20206;-81
2022/03/12 11:35:44;;;;;;;0.70;0.60;;;12.90;99.90;;;;;;5026238;28;20180;-81
2022/03/12 11:38:20;;;;;;;1.70;1.03;;;13.50;99.90;;;;;;5026728;28;20192;-82
2022/03/12 11:40:49;;;;;;;1.30;1.20;;;12.60;99.90;;;;;;5025416;28;20234;-82
2022/03/12 11:43:21;;;;;;;0.70;0.70;;;12.20;99.90;;;;;;5026016;28;20843;-82
2022/03/12 11:45:48;;;;;;;0.57;0.57;;;12.20;99.90;;;;;;5027973;28;20248;-82
2022/03/12 11:48:14;;;;;;;0.60;0.60;;;12.80;99.90;;;;;;5023260;28;20252;-82
2022/03/12 11:50:39;;;;;;;2.13;0.57;;;12.70;99.90;;;;;;5026185;28;20236;-82
2022/03/12 11:53:05;;;;;;;0.43;0.40;;;13.00;99.90;;;;;;5020846;28;20194;-82
2022/03/12 11:55:31;;;;;;;0.53;0.30;;;13.30;99.90;;;;;;5026933;28;20191;-82
2022/03/12 11:57:59;;;;;;;0.77;0.63;;;13.50;99.90;;;;;;5019352;28;20298;-83
2022/03/12 12:00:29;;;;;;;2.07;1.20;;;13.10;99.90;;;;;;5026145;28;20191;-82
2022/03/12 12:02:56;;;;;;;1.53;1.30;;;13.10;99.90;;;;;;5025142;28;20182;-82
2022/03/12 12:05:24;;;;;;;1.33;0.47;;;13.70;99.90;;;;;;5024979;28;22194;-83
2022/03/12 12:07:51;;;;;;;0.53;0.47;;;13.90;99.90;;;;;;5023103;28;20209;-82
2022/03/12 12:10:27;;;;;;;0.33;0.33;;;14.20;99.90;;;;;;5018029;28;20549;-82
2022/03/12 12:12:53;;;;;;;2.03;1.17;;;14.20;99.90;;;;;;5022491;28;20211;-82
2022/03/12 12:15:24;;;;;;;0.53;0.53;;;14.40;99.90;;;;;;5021345;28;20193;-82
2022/03/12 12:17:50;;;;;;;1.23;0.87;;;14.60;99.90;;;;;;5041479;28;20269;-82
2022/03/12 12:20:19;;;;;;;4.33;0.43;;;14.10;99.90;;;;;;5021291;28;20192;-82
2022/03/12 12:22:44;;;;;;;0.40;0.40;;;14.60;99.90;;;;;;5019874;28;20311;-83
2022/03/12 12:25:11;;;;;;;1.30;0.73;;;14.90;99.90;;;;;;5022979;28;20185;-83
2022/03/12 12:27:45;;;;;;;1.27;0.63;;;14.60;99.90;;;;;;5025937;28;20236;-82
2022/03/12 12:30:15;;;;;;;0.40;0.40;;;14.40;99.90;;;;;;5025974;28;20189;-82
2022/03/12 12:32:48;;;;;;;0.53;0.50;;;14.90;99.90;;;;;;5021534;28;20213;-83
2022/03/12 12:35:15;;;;;;;0.67;0.67;;;15.20;99.90;;;;;;5024463;28;20260;-83
2022/03/12 12:37:54;;;;;;;0.50;0.50;;;15.10;99.90;;;;;;5028041;28;20190;-82
2022/03/12 12:40:46;;;;;;;2.00;1.90;;;15.20;99.90;;;;;;5021775;28;20193;-83
2022/03/12 12:43:14;;;;;;;0.60;0.60;;;15.20;99.90;;;;;;5023556;28;20252;-82
2022/03/12 12:46:05;;;;;;;1.20;0.77;;;15.00;99.90;;;;;;5022351;28;20183;-82
2022/03/12 12:48:34;;;;;;;0.60;0.60;;;15.10;99.90;;;;;;5028943;28;20206;-82
2022/03/12 12:51:20;;;;;;;1.33;1.07;;;14.70;99.90;;;;;;5027041;28;20551;-82
2022/03/12 12:53:49;;;;;;;3.03;0.93;;;13.70;99.90;;;;;;5025043;28;20175;-82
2022/03/12 12:56:41;;;;;;;0.70;0.70;;;14.20;99.90;;;;;;5022817;28;20214;-86
2022/03/12 12:59:13;;;;;;;1.07;1.07;;;14.40;99.90;;;;;;5020085;28;20201;-87
2022/03/12 13:01:49;;;;;;;0.33;0.30;;;14.70;99.90;;;;;;5020105;28;20205;-83